createdAt,value
2015-10-14T00:00:04.563Z,75
2015-10-14T00:01:05.598Z,75
2015-10-14T00:04:08.434Z,75
2015-10-14T00:05:09.452Z,74
2015-10-14T00:06:10.237Z,75
2015-10-14T00:07:11.255Z,75
2015-10-14T00:08:12.351Z,75
2015-10-14T00:09:14.103Z,75
2015-10-14T00:10:15.388Z,75
2015-10-14T00:11:16.437Z,75
2015-10-14T00:12:49.518Z,75
2015-10-14T00:13:18.989Z,75
2015-10-14T00:14:20.024Z,75
2015-10-14T00:15:21.058Z,75
2015-10-14T00:16:22.107Z,75
2015-10-14T00:17:23.126Z,75
2015-10-14T00:18:24.206Z,75
2015-10-14T00:19:25.959Z,75
2015-10-14T00:20:26.993Z,75
2015-10-14T00:21:28.012Z,75
2015-10-14T00:22:29.312Z,75
2015-10-14T00:23:30.596Z,75
2015-10-14T00:25:03.442Z,75
2015-10-14T00:25:32.664Z,75
2015-10-14T00:26:33.682Z,75
2015-10-14T00:27:34.731Z,75
2015-10-14T00:28:35.797Z,75
2015-10-14T00:29:37.565Z,75
2015-10-14T00:30:38.865Z,75
2015-10-14T00:31:40.134Z,75
2015-10-14T00:33:13.229Z,75
2015-10-14T00:34:14.264Z,75
2015-10-14T00:34:43.484Z,75
2015-10-14T00:35:44.769Z,75
2015-10-14T00:36:45.803Z,75
2015-10-14T00:37:47.087Z,75
2015-10-14T00:38:48.183Z,75
2015-10-14T00:39:49.922Z,75
2015-10-14T00:40:51.193Z,75
2015-10-14T00:41:52.465Z,75
2015-10-14T00:42:53.737Z,75
2015-10-14T00:43:55.026Z,75
2015-10-14T00:44:56.040Z,75
2015-10-14T00:46:28.882Z,75
2015-10-14T00:46:58.084Z,75
2015-10-14T00:47:59.129Z,74
2015-10-14T00:48:59.956Z,75
2015-10-14T00:50:01.708Z,74
2015-10-14T00:51:02.458Z,75
2015-10-14T00:52:03.490Z,74
2015-10-14T00:53:04.257Z,74
2015-10-14T00:54:05.056Z,74
2015-10-14T00:55:05.823Z,74
2015-10-14T00:56:06.591Z,74
2015-10-14T00:57:07.359Z,74
2015-10-14T00:58:08.142Z,74
2015-10-14T00:59:08.972Z,74
2015-10-14T01:00:10.709Z,74
2015-10-14T01:01:11.493Z,74
2015-10-14T01:02:12.261Z,74
2015-10-14T01:03:13.046Z,74
2015-10-14T01:04:13.814Z,74
2015-10-14T01:05:46.394Z,74
2015-10-14T01:06:15.383Z,74
2015-10-14T01:07:16.150Z,74
2015-10-14T01:08:16.919Z,74
2015-10-14T01:09:17.749Z,74
2015-10-14T01:10:51.299Z,74
2015-10-14T01:12:20.789Z,74
2015-10-14T01:13:21.308Z,74
2015-10-14T01:14:21.826Z,74
2015-10-14T01:15:22.359Z,74
2015-10-14T01:16:22.878Z,74
2015-10-14T01:17:23.646Z,74
2015-10-14T01:18:24.149Z,74
2015-10-14T01:19:24.729Z,74
2015-10-14T01:20:26.467Z,74
2015-10-14T01:21:27.001Z,74
2015-10-14T01:22:27.535Z,74
2015-10-14T01:23:28.038Z,74
2015-10-14T01:25:00.368Z,73
2015-10-14T01:26:00.621Z,73
2015-10-14T01:26:29.076Z,73
2015-10-14T01:27:29.346Z,73
2015-10-14T01:28:29.614Z,73
2015-10-14T01:29:29.913Z,73
2015-10-14T01:30:31.665Z,73
2015-10-14T01:31:31.935Z,73
2015-10-14T01:33:04.015Z,74
2015-10-14T01:33:32.706Z,73
2015-10-14T01:34:32.973Z,73
2015-10-14T01:35:33.242Z,73
2015-10-14T01:36:33.510Z,73
2015-10-14T01:37:33.763Z,73
2015-10-14T01:39:05.828Z,73
2015-10-14T01:40:36.100Z,73
2015-10-14T01:41:36.352Z,73
2015-10-14T01:42:36.605Z,73
2015-10-14T01:43:36.872Z,73
2015-10-14T01:44:37.141Z,73
2015-10-14T01:45:37.144Z,73
2015-10-14T01:46:37.147Z,73
2015-10-14T01:47:37.165Z,73
2015-10-14T01:49:08.746Z,72
2015-10-14T01:49:36.480Z,72
2015-10-14T01:50:38.217Z,72
2015-10-14T01:51:38.220Z,72
2015-10-14T01:52:37.207Z,72
2015-10-14T01:53:36.694Z,72
2015-10-14T01:54:36.447Z,72
2015-10-14T01:55:36.216Z,72
2015-10-14T01:56:35.953Z,72
2015-10-14T01:57:35.628Z,72
2015-10-14T01:58:35.458Z,72
2015-10-14T01:59:35.008Z,72
2015-10-14T02:00:36.744Z,72
2015-10-14T02:02:08.297Z,72
2015-10-14T02:02:36.250Z,72
2015-10-14T02:03:35.752Z,72
2015-10-14T02:04:35.241Z,72
2015-10-14T02:05:34.728Z,72
2015-10-14T02:06:34.230Z,72
2015-10-14T02:07:33.717Z,72
2015-10-14T02:08:33.220Z,72
2015-10-14T02:09:32.769Z,72
2015-10-14T02:11:06.321Z,72
2015-10-14T02:12:05.559Z,72
2015-10-14T02:12:32.996Z,72
2015-10-14T02:13:32.218Z,72
2015-10-14T02:14:31.454Z,72
2015-10-14T02:15:30.692Z,72
2015-10-14T02:16:29.929Z,72
2015-10-14T02:17:29.181Z,72
2015-10-14T02:18:28.685Z,72
2015-10-14T02:19:28.219Z,72
2015-10-14T02:20:29.957Z,72
2015-10-14T02:21:29.458Z,72
2015-10-14T02:22:28.695Z,72
2015-10-14T02:23:27.917Z,72
2015-10-14T02:24:27.170Z,72
2015-10-14T02:25:26.392Z,72
2015-10-14T02:26:25.629Z,72
2015-10-14T02:27:24.879Z,72
2015-10-14T08:26:39.718Z,73
2015-10-14T08:27:39.409Z,73
2015-10-14T08:28:39.240Z,73
2015-10-14T08:29:38.945Z,73
2015-10-14T08:30:40.699Z,73
2015-10-14T08:31:40.435Z,73
2015-10-14T08:32:40.188Z,73
2015-10-14T08:33:39.925Z,73
2015-10-14T08:34:39.928Z,73
2015-10-14T08:35:39.931Z,73
2015-10-14T08:36:39.934Z,73
2015-10-14T08:37:40.202Z,73
2015-10-14T08:38:40.579Z,73
2015-10-14T08:40:12.582Z,73
2015-10-14T08:40:42.632Z,73
2015-10-14T08:41:42.775Z,73
2015-10-14T08:42:43.043Z,74
2015-10-14T08:44:15.358Z,74
2015-10-14T08:44:44.080Z,74
2015-10-14T08:45:44.597Z,74
2015-10-14T08:46:45.367Z,74
2015-10-14T08:47:46.134Z,74
2015-10-14T08:48:46.919Z,74
2015-10-14T08:49:47.750Z,75
2015-10-14T08:50:49.487Z,75
2015-10-14T08:51:50.505Z,75
2015-10-14T08:52:51.555Z,75
2015-10-14T08:53:52.839Z,75
2015-10-14T08:54:54.122Z,75
2015-10-14T08:55:55.406Z,75
2015-10-14T08:57:04.596Z,76
2015-10-14T08:57:58.225Z,76
2015-10-14T08:58:59.774Z,76
2015-10-14T09:00:01.371Z,76
2015-10-14T09:01:03.124Z,76
2015-10-14T09:02:05.141Z,76
2015-10-14T09:03:06.722Z,76
2015-10-14T09:04:08.507Z,76
2015-10-14T09:05:10.321Z,76
2015-10-14T09:06:12.371Z,76
2015-10-14T09:07:14.421Z,76
2015-10-14T09:08:16.486Z,76
2015-10-14T09:09:18.535Z,76
2015-10-14T09:10:20.663Z,77
2015-10-14T09:11:22.401Z,77
2015-10-14T09:12:24.700Z,77
2015-10-14T09:13:27.015Z,77
2015-10-14T09:14:29.330Z,77
2015-10-14T09:15:31.646Z,77
2015-10-14T09:16:33.961Z,77
2015-10-14T09:17:36.277Z,77
2015-10-14T09:18:38.576Z,77
2015-10-14T09:19:37.032Z,77
2015-10-14T09:20:35.565Z,77
2015-10-14T09:21:37.318Z,77
2015-10-14T09:22:35.774Z,77
2015-10-14T09:23:34.245Z,77
2015-10-14T09:24:32.717Z,78
2015-10-14T09:26:03.235Z,78
2015-10-14T09:26:30.159Z,78
2015-10-14T09:28:00.695Z,78
2015-10-14T09:28:27.603Z,78
2015-10-14T09:29:26.325Z,78
2015-10-14T09:30:25.109Z,78
2015-10-14T09:31:58.659Z,78
2015-10-14T09:32:25.567Z,78
2015-10-14T09:33:24.288Z,78
2015-10-14T09:34:23.010Z,78
2015-10-14T09:35:21.747Z,78
2015-10-14T09:36:20.453Z,78
2015-10-14T09:37:50.987Z,78
2015-10-14T09:38:17.928Z,78
2015-10-14T09:39:16.631Z,78
2015-10-14T09:40:15.414Z,78
2015-10-14T09:41:17.151Z,78
2015-10-14T09:42:15.872Z,77
2015-10-14T09:43:46.144Z,78
2015-10-14T09:44:13.050Z,78
2015-10-14T09:45:11.772Z,78
2015-10-14T09:46:10.501Z,78
2015-10-14T09:47:09.209Z,78
2015-10-14T09:48:07.917Z,78
2015-10-14T09:49:06.624Z,78
2015-10-14T09:50:05.646Z,78
2015-10-14T09:51:07.499Z,78
2015-10-14T09:52:06.840Z,78
2015-10-14T09:53:06.088Z,78
2015-10-14T09:54:05.069Z,78
2015-10-14T09:55:36.240Z,78
2015-10-14T09:56:35.460Z,78
2015-10-14T09:57:34.820Z,78
2015-10-14T09:58:02.258Z,79
2015-10-14T09:59:01.509Z,78
2015-10-14T10:00:00.792Z,78
2015-10-14T10:01:02.527Z,78
2015-10-14T10:02:01.764Z,79
2015-10-14T10:03:01.266Z,78
2015-10-14T10:04:00.502Z,78
2015-10-14T10:04:59.723Z,78
2015-10-14T10:05:58.975Z,78
2015-10-14T10:06:58.196Z,78
2015-10-14T10:07:57.432Z,78
2015-10-14T10:09:28.466Z,78
2015-10-14T10:09:55.953Z,79
2015-10-14T10:10:57.706Z,78
2015-10-14T10:11:56.943Z,78
2015-10-14T10:12:56.179Z,79
2015-10-14T10:13:55.667Z,78
2015-10-14T10:15:26.717Z,78
2015-10-14T10:15:54.141Z,78
2015-10-14T10:16:53.378Z,78
2015-10-14T10:17:52.615Z,78
2015-10-14T10:18:51.853Z,78
2015-10-14T10:19:51.136Z,78
2015-10-14T10:20:52.873Z,78
2015-10-14T10:21:52.125Z,78
2015-10-14T10:23:50.584Z,78
2015-10-14T10:24:49.834Z,78
2015-10-14T10:25:49.056Z,78
2015-10-14T10:26:48.293Z,78
2015-10-14T10:27:47.530Z,78
2015-10-14T10:28:46.767Z,78
2015-10-14T10:30:17.867Z,79
2015-10-14T10:30:47.804Z,78
2015-10-14T10:31:47.041Z,78
2015-10-14T10:32:46.263Z,78
2015-10-14T10:33:45.516Z,79
2015-10-14T10:34:45.002Z,79
2015-10-14T10:35:44.755Z,79
2015-10-14T10:36:44.758Z,80
2015-10-14T10:37:45.026Z,80
2015-10-14T10:38:45.295Z,80
2015-10-14T10:39:45.610Z,80
2015-10-14T10:40:47.347Z,80
2015-10-14T10:41:47.600Z,80
2015-10-14T10:42:47.853Z,80
2015-10-14T10:43:48.371Z,80
2015-10-14T10:44:48.889Z,80
2015-10-14T10:46:20.958Z,80
2015-10-14T10:46:49.411Z,80
2015-10-14T10:47:49.679Z,80
2015-10-14T10:49:21.732Z,80
2015-10-14T10:49:50.248Z,80
2015-10-14T10:50:51.970Z,80
2015-10-14T10:51:52.237Z,80
2015-10-14T10:52:52.490Z,80
2015-10-14T10:53:52.758Z,80
2015-10-14T10:54:53.856Z,80
2015-10-14T10:56:25.079Z,81
2015-10-14T10:56:54.064Z,81
2015-10-14T10:57:54.817Z,81
2015-10-14T10:58:55.834Z,81
2015-10-14T10:59:57.180Z,81
2015-10-14T11:00:58.918Z,81
2015-10-14T11:02:00.202Z,81
2015-10-14T11:03:01.486Z,81
2015-10-14T11:04:02.770Z,81
2015-10-14T11:05:04.054Z,81
2015-10-14T11:06:05.338Z,81
2015-10-14T11:07:06.622Z,81
2015-10-14T11:08:07.906Z,81
2015-10-14T11:09:09.191Z,81
2015-10-14T11:10:10.536Z,81
2015-10-14T11:11:12.274Z,81
2015-10-14T11:12:13.557Z,81
2015-10-14T11:13:14.858Z,81
2015-10-14T11:14:16.125Z,81
2015-10-14T11:15:17.425Z,81
2015-10-14T11:16:18.694Z,81
2015-10-14T11:17:19.728Z,81
2015-10-14T11:18:21.011Z,81
2015-10-14T11:19:22.030Z,81
2015-10-14T11:20:23.127Z,81
2015-10-14T11:21:24.863Z,81
2015-10-14T11:22:25.896Z,81
2015-10-14T11:23:26.681Z,81
2015-10-14T11:24:27.434Z,81
2015-10-14T11:25:28.218Z,81
2015-10-14T11:26:28.987Z,81
2015-10-14T11:27:29.755Z,81
2015-10-14T11:28:30.538Z,81
